createdAt,value
2023-04-21T00:02:00.840Z,7.76
2023-04-21T00:04:29.144Z,7.58
2023-04-21T00:06:57.399Z,7.68
2023-04-21T00:09:25.389Z,7.81
2023-04-21T00:11:53.273Z,7.80
2023-04-21T00:14:22.548Z,7.61
2023-04-21T00:16:53.341Z,7.75
2023-04-21T00:19:21.707Z,7.66
2023-04-21T00:21:49.902Z,7.95
2023-04-21T00:24:17.849Z,7.69
2023-04-21T00:26:45.743Z,7.57
2023-04-21T00:29:13.604Z,7.72
2023-04-21T00:31:42.946Z,7.68
2023-04-21T00:34:10.855Z,7.70
2023-04-21T00:36:39.084Z,7.71
2023-04-21T00:39:07.116Z,7.95
2023-04-21T00:41:36.166Z,7.94
2023-04-21T00:44:04.920Z,8.03
2023-04-21T00:46:32.951Z,8.05
2023-04-21T00:49:03.151Z,7.95
2023-04-21T00:51:33.170Z,7.97
2023-04-21T00:54:01.562Z,8.01
2023-04-21T00:56:29.742Z,7.94
2023-04-21T00:58:58.053Z,7.76
2023-04-21T01:01:26.320Z,7.97
2023-04-21T01:03:54.310Z,8.00
2023-04-21T01:06:23.613Z,7.94
2023-04-21T01:08:51.543Z,7.87
2023-04-21T01:11:19.517Z,8.08
2023-04-21T01:13:47.933Z,8.04
2023-04-21T01:16:17.664Z,7.96
2023-04-21T01:18:45.754Z,7.99
2023-04-21T01:21:14.337Z,8.06
2023-04-21T01:23:43.624Z,8.08
2023-04-21T01:26:11.528Z,7.98
2023-04-21T01:28:39.443Z,8.05
2023-04-21T01:31:07.604Z,8.23
2023-04-21T01:33:35.559Z,8.28
2023-04-21T01:36:03.509Z,8.37
2023-04-21T01:38:31.440Z,8.35
2023-04-21T01:41:00.754Z,8.54
2023-04-21T01:43:28.677Z,8.49
2023-04-21T01:45:56.661Z,8.38
2023-04-21T01:48:24.933Z,8.42
2023-04-21T01:50:52.836Z,8.37
2023-04-21T01:53:20.721Z,8.43
2023-04-21T01:55:49.159Z,8.54
2023-04-21T01:58:18.568Z,8.57
2023-04-21T02:00:46.484Z,8.53
2023-04-21T02:03:14.561Z,8.46
2023-04-21T02:05:42.895Z,8.42
2023-04-21T02:08:10.939Z,8.38
2023-04-21T02:10:38.910Z,8.28
2023-04-21T02:13:06.875Z,8.44
2023-04-21T02:15:36.519Z,8.38
2023-04-21T02:18:04.750Z,8.33
2023-04-21T02:20:32.677Z,8.38
2023-04-21T02:23:00.913Z,8.42
2023-04-21T02:25:29.808Z,8.44
2023-04-21T02:27:57.726Z,8.44
2023-04-21T02:30:26.199Z,8.57
2023-04-21T02:32:55.662Z,8.61
2023-04-21T02:35:23.785Z,8.57
2023-04-21T02:37:51.728Z,8.60
2023-04-21T02:40:19.694Z,8.61
2023-04-21T02:42:47.740Z,8.67
2023-04-21T02:45:15.908Z,8.69
2023-04-21T02:47:43.910Z,8.85
2023-04-21T02:50:14.561Z,8.66
2023-04-21T02:52:42.469Z,8.62
2023-04-21T02:55:10.569Z,8.73
2023-04-21T02:57:38.541Z,8.72
2023-04-21T03:00:08.105Z,8.64
2023-04-21T03:02:36.271Z,8.63
2023-04-21T03:05:04.493Z,8.65
2023-04-21T03:07:33.912Z,8.76
2023-04-21T03:10:02.235Z,8.83
2023-04-21T03:12:30.118Z,8.90
2023-04-21T03:14:58.038Z,8.83
2023-04-21T03:17:26.052Z,8.75
2023-04-21T03:19:54.047Z,8.78
2023-04-21T03:22:22.024Z,8.89
2023-04-21T03:24:51.553Z,8.99
2023-04-21T03:27:19.512Z,8.91
2023-04-21T03:29:47.450Z,8.93
2023-04-21T03:32:15.815Z,8.91
2023-04-21T03:34:43.844Z,9.04
2023-04-21T03:37:11.827Z,9.09
2023-04-21T03:39:39.792Z,8.93
2023-04-21T03:42:09.107Z,9.01
2023-04-21T03:44:37.012Z,9.12
2023-04-21T03:47:05.527Z,9.10
2023-04-21T03:49:35.328Z,9.00
2023-04-21T03:52:03.307Z,8.97
2023-04-21T03:54:31.394Z,8.97
2023-04-21T03:56:59.321Z,8.96
2023-04-21T03:59:28.723Z,8.90
2023-04-21T04:01:56.939Z,9.07
2023-04-21T04:04:25.016Z,8.87
2023-04-21T04:06:53.331Z,8.79
2023-04-21T04:09:21.453Z,8.98
2023-04-21T04:11:49.571Z,8.90
2023-04-21T04:14:17.625Z,8.93
2023-04-21T04:16:47.338Z,8.91
2023-04-21T04:19:16.180Z,8.87
2023-04-21T04:21:44.215Z,8.86
2023-04-21T04:24:14.042Z,8.92
2023-04-21T04:26:41.947Z,8.91
2023-04-21T04:29:11.254Z,8.61
2023-04-21T04:31:39.545Z,8.70
2023-04-21T04:34:09.663Z,8.74
2023-04-21T04:36:38.042Z,8.61
2023-04-21T04:39:08.316Z,8.70
2023-04-21T04:41:37.919Z,8.75
2023-04-21T04:44:06.176Z,8.67
2023-04-21T04:46:34.993Z,8.73
2023-04-21T04:49:03.093Z,8.64
2023-04-21T04:51:32.807Z,8.64
2023-04-21T04:54:01.188Z,8.57
2023-04-21T04:56:29.547Z,8.60
2023-04-21T04:58:57.764Z,8.61
2023-04-21T05:01:30.210Z,8.58
2023-04-21T05:03:58.502Z,8.70
2023-04-21T05:06:28.495Z,8.52
2023-04-21T05:08:57.807Z,8.58
2023-04-21T05:11:25.738Z,8.67
2023-04-21T05:13:53.622Z,8.74
2023-04-21T05:16:21.589Z,8.66
2023-04-21T05:18:51.054Z,8.64
2023-04-21T05:21:25.316Z,8.76
2023-04-21T05:23:53.245Z,8.83
2023-04-21T05:26:22.852Z,8.84
2023-04-21T05:28:51.345Z,8.75
2023-04-21T05:31:20.060Z,8.80
2023-04-21T05:33:47.990Z,9.01
2023-04-21T05:36:15.914Z,9.10
2023-04-21T05:38:43.820Z,8.90
2023-04-21T05:41:11.814Z,9.02
2023-04-21T05:43:41.136Z,9.06
2023-04-21T05:46:10.283Z,9.09
2023-04-21T05:48:38.369Z,9.15
2023-04-21T05:51:12.527Z,9.31
2023-04-21T05:54:11.401Z,9.34
2023-04-21T05:56:45.382Z,9.36
2023-04-21T05:59:14.864Z,9.58
2023-04-21T06:01:42.774Z,9.73
2023-04-21T06:04:11.067Z,9.85
2023-04-21T06:06:39.266Z,9.90
2023-04-21T06:09:07.986Z,10.03
2023-04-21T06:11:41.320Z,9.89
2023-04-21T06:14:09.246Z,10.11
2023-04-21T06:16:38.652Z,10.10
2023-04-21T06:19:06.635Z,10.25
2023-04-21T06:21:34.552Z,10.23
2023-04-21T06:24:02.616Z,10.48
2023-04-21T06:26:31.470Z,10.49
2023-04-21T06:28:59.377Z,10.63
2023-04-21T06:31:27.246Z,10.59
2023-04-21T06:33:56.607Z,10.66
2023-04-21T06:36:24.752Z,10.90
2023-04-21T06:38:52.817Z,10.99
2023-04-21T06:41:22.226Z,10.93
2023-04-21T06:43:51.952Z,10.92
2023-04-21T06:46:25.109Z,10.87
2023-04-21T06:48:53.289Z,11.20
2023-04-21T06:51:22.905Z,11.11
2023-04-21T06:53:50.794Z,11.08
2023-04-21T06:56:19.044Z,11.13
2023-04-21T06:58:47.931Z,11.16
2023-04-21T07:01:16.376Z,11.13
2023-04-21T07:03:44.368Z,11.05
2023-04-21T07:06:12.345Z,11.19
2023-04-21T07:08:42.328Z,11.12
2023-04-21T07:11:10.285Z,11.24
2023-04-21T07:13:38.215Z,11.16
2023-04-21T07:16:06.707Z,11.07
2023-04-21T07:18:34.806Z,11.24
2023-04-21T07:21:07.578Z,11.47
2023-04-21T07:23:40.786Z,11.60
2023-04-21T07:26:10.483Z,11.65
2023-04-21T07:28:38.759Z,11.60
2023-04-21T07:31:06.711Z,11.31
2023-04-21T07:33:34.717Z,11.60
2023-04-21T07:36:02.783Z,11.52
2023-04-21T07:38:30.815Z,11.32
2023-04-21T07:41:00.184Z,11.40
2023-04-21T07:43:34.684Z,11.59
2023-04-21T07:46:09.421Z,11.78
2023-04-21T07:48:38.119Z,11.55
2023-04-21T07:51:06.308Z,11.81
2023-04-21T07:53:34.544Z,11.89
2023-04-21T07:56:02.930Z,11.98
2023-04-21T07:58:32.353Z,11.96
2023-04-21T08:01:00.282Z,12.09
2023-04-21T08:03:34.380Z,12.18
2023-04-21T08:06:02.979Z,12.13
2023-04-21T08:08:32.096Z,12.00
2023-04-21T08:11:00.326Z,12.03
2023-04-21T08:13:28.284Z,12.11
2023-04-21T08:15:57.971Z,12.35
2023-04-21T08:18:26.365Z,12.46
2023-04-21T08:20:57.420Z,12.51
2023-04-21T08:23:25.421Z,12.51
2023-04-21T08:25:53.417Z,12.32
2023-04-21T08:28:21.470Z,12.53
2023-04-21T08:30:49.423Z,12.61
2023-04-21T08:33:19.169Z,12.84
2023-04-21T08:36:02.349Z,12.74
2023-04-21T08:38:34.918Z,13.10
2023-04-21T08:41:03.354Z,13.01
2023-04-21T08:43:31.404Z,13.01
2023-04-21T08:45:59.371Z,13.11
2023-04-21T08:48:29.224Z,13.10
2023-04-21T08:50:57.125Z,12.98
2023-04-21T08:53:25.037Z,12.89
2023-04-21T08:56:10.165Z,12.77
2023-04-21T08:58:41.651Z,13.11
2023-04-21T09:01:09.731Z,13.10
2023-04-21T09:03:39.252Z,12.91
2023-04-21T09:06:09.396Z,13.01
2023-04-21T09:08:39.865Z,12.95
2023-04-21T09:11:07.731Z,13.10
2023-04-21T09:13:36.426Z,13.40
2023-04-21T09:16:07.451Z,13.33
2023-04-21T09:18:40.328Z,13.24
2023-04-21T09:21:09.512Z,13.58
2023-04-21T09:23:44.600Z,13.31
2023-04-21T09:26:12.754Z,13.18
2023-04-21T09:28:44.080Z,13.19
2023-04-21T09:31:16.973Z,13.46
2023-04-21T09:36:22.085Z,13.33
2023-04-21T09:39:12.911Z,13.71
2023-04-21T09:41:46.099Z,13.58
2023-04-21T09:44:14.041Z,13.46
2023-04-21T09:46:45.613Z,13.27
2023-04-21T09:49:17.421Z,13.28
2023-04-21T09:52:17.029Z,13.44
2023-04-21T09:54:37.399Z,13.42
2023-04-21T09:57:06.176Z,13.18
2023-04-21T09:59:36.134Z,13.64
2023-04-21T10:02:07.127Z,13.71
2023-04-21T10:04:37.971Z,13.62
2023-04-21T10:07:06.502Z,13.74
2023-04-21T10:09:37.673Z,13.71
2023-04-21T10:12:07.014Z,14.10
2023-04-21T10:14:37.257Z,14.34
2023-04-21T10:17:06.283Z,14.55
2023-04-21T10:19:39.583Z,14.67
2023-04-21T10:22:10.112Z,14.23
2023-04-21T10:24:39.462Z,14.55
2023-04-21T10:27:07.348Z,14.71
2023-04-21T10:32:09.108Z,14.45
2023-04-21T10:34:37.823Z,14.27
2023-04-21T10:37:19.675Z,14.42
2023-04-21T10:39:54.825Z,14.80
2023-04-21T10:42:31.310Z,14.98
2023-04-21T10:45:04.020Z,14.90
2023-04-21T10:47:37.829Z,15.08
2023-04-21T10:50:18.601Z,14.85
2023-04-21T10:53:02.838Z,14.87
2023-04-21T10:55:31.145Z,15.25
2023-04-21T10:58:03.171Z,15.08
2023-04-21T11:00:35.498Z,15.15
2023-04-21T11:03:16.828Z,15.12
2023-04-21T11:05:45.025Z,14.82
2023-04-21T11:08:15.409Z,15.07
2023-04-21T11:10:48.433Z,15.08
2023-04-21T11:13:16.445Z,15.17
2023-04-21T11:15:57.242Z,15.17
2023-04-21T11:18:39.881Z,15.05
2023-04-21T11:21:18.995Z,15.08
2023-04-21T11:23:54.673Z,15.29
2023-04-21T11:26:32.729Z,15.18
2023-04-21T11:29:04.409Z,14.87
2023-04-21T11:31:33.222Z,15.19
2023-04-21T11:34:01.530Z,15.42
2023-04-21T11:36:29.775Z,15.17
2023-04-21T11:38:59.517Z,15.28
2023-04-21T11:41:27.635Z,15.15
2023-04-21T11:43:55.684Z,15.42
2023-04-21T11:46:25.089Z,15.34
2023-04-21T11:49:02.435Z,15.10
2023-04-21T11:51:34.466Z,15.34
2023-04-21T11:54:04.396Z,14.64
2023-04-21T11:56:36.653Z,14.70
2023-04-21T11:59:37.890Z,14.98
2023-04-21T12:02:34.522Z,15.09
2023-04-21T12:05:09.261Z,15.09
2023-04-21T12:07:38.874Z,15.19
2023-04-21T12:10:12.038Z,15.49
2023-04-21T12:12:40.521Z,15.82
2023-04-21T12:15:09.523Z,15.75
2023-04-21T12:17:39.709Z,15.68
2023-04-21T12:20:08.969Z,15.94
2023-04-21T12:22:37.002Z,15.95
2023-04-21T12:25:06.596Z,15.77
2023-04-21T12:27:36.237Z,16.08
2023-04-21T12:30:04.425Z,15.72
2023-04-21T12:32:41.031Z,16.18
2023-04-21T12:35:10.501Z,16.34
2023-04-21T12:37:38.418Z,16.41
2023-04-21T12:40:07.988Z,16.43
2023-04-21T12:42:38.414Z,16.50
2023-04-21T12:45:07.661Z,16.37
2023-04-21T12:47:36.839Z,16.69
2023-04-21T12:50:05.566Z,16.66
2023-04-21T12:52:33.568Z,16.74
2023-04-21T12:55:01.501Z,16.77
2023-04-21T12:57:29.581Z,16.87
2023-04-21T12:59:59.088Z,17.28
2023-04-21T13:02:27.452Z,16.81
2023-04-21T13:04:55.708Z,17.05
2023-04-21T13:07:26.717Z,17.34
2023-04-21T13:09:58.077Z,17.25
2023-04-21T13:12:29.362Z,17.39
2023-04-21T13:15:02.307Z,17.58
2023-04-21T13:17:31.293Z,17.39
2023-04-21T13:19:59.676Z,17.69
2023-04-21T13:22:27.634Z,17.67
2023-04-21T13:24:55.506Z,18.13
2023-04-21T13:27:23.728Z,17.54
2023-04-21T13:29:52.520Z,17.92
2023-04-21T13:32:21.868Z,17.85
2023-04-21T13:34:49.844Z,17.41
2023-04-21T13:37:18.004Z,17.84
2023-04-21T13:39:45.982Z,17.56
2023-04-21T13:42:14.261Z,17.75
2023-04-21T13:44:42.292Z,17.53
2023-04-21T13:47:10.373Z,17.92
2023-04-21T13:49:40.165Z,17.55
2023-04-21T13:52:08.466Z,17.71
2023-04-21T13:54:36.414Z,18.17
2023-04-21T13:57:08.676Z,18.19
2023-04-21T13:59:39.672Z,18.22
2023-04-21T14:02:09.568Z,18.59
2023-04-21T14:04:39.745Z,18.22
2023-04-21T14:07:08.027Z,18.14
2023-04-21T14:09:39.071Z,17.67
2023-04-21T14:12:07.005Z,18.02
2023-04-21T14:14:38.674Z,18.01
2023-04-21T14:17:07.307Z,18.12
2023-04-21T14:19:35.588Z,18.32
2023-04-21T14:22:05.607Z,18.39
2023-04-21T14:24:33.461Z,18.71
2023-04-21T14:27:01.563Z,18.47
2023-04-21T14:29:29.681Z,18.45
2023-04-21T14:31:59.501Z,18.29
2023-04-21T14:34:27.499Z,18.25
2023-04-21T14:36:55.980Z,18.46
2023-04-21T14:39:25.445Z,18.14
2023-04-21T14:41:53.369Z,18.24
2023-04-21T14:44:21.324Z,18.38
2023-04-21T14:47:00.954Z,18.86
2023-04-21T14:49:37.216Z,18.90
2023-04-21T14:52:05.578Z,19.18
2023-04-21T14:54:34.995Z,18.88
2023-04-21T14:57:19.079Z,19.19
2023-04-21T14:59:49.353Z,19.47
2023-04-21T15:02:17.630Z,19.67
2023-04-21T15:04:45.735Z,19.43
2023-04-21T15:07:13.724Z,19.43
2023-04-21T15:09:49.877Z,19.50
2023-04-21T15:12:18.396Z,19.63
2023-04-21T15:14:46.480Z,19.80
2023-04-21T15:17:14.774Z,19.43
2023-04-21T15:19:42.830Z,19.33
2023-04-21T15:22:12.158Z,19.38
2023-04-21T15:24:44.358Z,18.76
2023-04-21T15:27:13.637Z,19.04
2023-04-21T15:29:41.562Z,19.06
2023-04-21T15:32:09.588Z,18.92
2023-04-21T15:34:37.557Z,18.81
2023-04-21T15:37:12.983Z,18.61
2023-04-21T15:39:46.827Z,18.43
2023-04-21T15:42:16.266Z,18.45
2023-04-21T15:44:44.329Z,18.49
2023-04-21T15:47:12.260Z,18.46
2023-04-21T15:49:40.191Z,18.30
2023-04-21T15:52:08.417Z,18.44
2023-04-21T15:54:36.771Z,18.53
2023-04-21T15:57:05.504Z,18.59
2023-04-21T15:59:34.963Z,18.50
2023-04-21T16:02:03.160Z,18.69
2023-04-21T16:04:31.713Z,18.69
2023-04-21T16:06:59.711Z,18.83
2023-04-21T16:09:28.028Z,19.20
2023-04-21T16:11:56.678Z,19.26
2023-04-21T16:14:24.665Z,19.01
2023-04-21T16:16:54.317Z,19.23
2023-04-21T16:19:22.276Z,19.61
2023-04-21T16:21:50.259Z,19.37
2023-04-21T16:24:18.168Z,19.50
2023-04-21T16:26:46.660Z,19.78
2023-04-21T16:29:14.559Z,19.67
2023-04-21T16:31:42.433Z,19.87
2023-04-21T16:34:13.795Z,20.06
2023-04-21T16:36:42.039Z,20.04
2023-04-21T16:39:10.078Z,20.15
2023-04-21T16:41:38.101Z,19.74
2023-04-21T16:44:05.970Z,19.57
2023-04-21T16:46:34.308Z,19.36
2023-04-21T16:49:02.260Z,19.61
2023-04-21T16:51:31.818Z,19.13
2023-04-21T16:53:59.950Z,18.84
2023-04-21T16:56:27.844Z,18.66
2023-04-21T16:58:55.752Z,18.64
2023-04-21T17:01:23.755Z,18.40
2023-04-21T17:03:51.865Z,18.36
2023-04-21T17:09:51.801Z,18.02
2023-04-21T17:12:22.837Z,17.93
2023-04-21T17:14:50.877Z,17.93
2023-04-21T17:17:18.863Z,17.73
2023-04-21T17:19:46.814Z,17.84
2023-04-21T17:22:14.997Z,17.67
2023-04-21T17:27:20.542Z,17.41
2023-04-21T17:29:48.554Z,17.58
2023-04-21T17:32:16.925Z,17.43
2023-04-21T17:34:45.364Z,17.32
2023-04-21T17:37:13.220Z,17.12
2023-04-21T17:39:41.147Z,17.02
2023-04-21T17:42:10.404Z,17.02
2023-04-21T17:44:39.972Z,16.89
2023-04-21T17:47:08.967Z,16.93
2023-04-21T17:49:36.967Z,16.93
2023-04-21T17:52:05.559Z,16.87
2023-04-21T17:54:33.495Z,16.84
2023-04-21T17:57:01.705Z,16.81
2023-04-21T17:59:31.571Z,16.91
2023-04-21T18:02:00.462Z,16.78
2023-04-21T18:04:30.753Z,16.73
2023-04-21T18:06:59.110Z,16.69
2023-04-21T18:09:27.364Z,16.60
2023-04-21T18:11:56.454Z,16.45
2023-04-21T18:14:24.679Z,16.33
2023-04-21T18:16:54.316Z,16.35
2023-04-21T18:19:22.597Z,16.36
2023-04-21T18:21:50.585Z,16.39
2023-04-21T18:24:18.533Z,16.27
2023-04-21T18:26:47.031Z,16.23
2023-04-21T18:29:17.517Z,16.07
2023-04-21T18:31:45.694Z,15.92
2023-04-21T18:34:15.205Z,15.95
2023-04-21T18:36:43.580Z,15.92
2023-04-21T18:39:11.533Z,15.78
2023-04-21T18:41:40.376Z,15.67
2023-04-21T18:44:08.279Z,15.54
2023-04-21T18:46:36.529Z,15.56
2023-04-21T18:49:05.705Z,15.56
2023-04-21T18:51:34.980Z,15.43
2023-04-21T18:54:04.546Z,15.44
2023-04-21T18:56:33.696Z,15.39
2023-04-21T18:59:01.716Z,15.29
2023-04-21T19:01:29.777Z,15.39
2023-04-21T19:03:58.925Z,15.30
2023-04-21T19:06:27.932Z,15.35
2023-04-21T19:08:57.813Z,15.37
2023-04-21T19:11:26.098Z,15.30
2023-04-21T19:13:54.006Z,15.17
2023-04-21T19:16:22.341Z,15.29
2023-04-21T19:18:52.338Z,15.33
2023-04-21T19:21:20.319Z,15.31
2023-04-21T19:23:48.568Z,15.31
2023-04-21T19:26:18.327Z,15.23
2023-04-21T19:28:46.509Z,15.21
2023-04-21T19:31:15.616Z,15.15
2023-04-21T19:33:43.886Z,15.22
2023-04-21T19:36:11.796Z,15.16
2023-04-21T19:38:40.067Z,15.14
2023-04-21T19:41:08.068Z,15.07
2023-04-21T19:43:37.413Z,15.04
2023-04-21T19:46:05.670Z,15.09
2023-04-21T19:48:34.163Z,14.98
2023-04-21T19:51:02.573Z,14.72
2023-04-21T19:53:30.512Z,14.31
2023-04-21T19:55:58.933Z,13.66
2023-04-21T19:58:39.781Z,12.95
2023-04-21T20:01:10.605Z,12.77
2023-04-21T20:03:38.814Z,12.76
2023-04-21T20:06:07.322Z,12.47
2023-04-21T20:08:35.659Z,12.62
2023-04-21T20:11:04.059Z,12.58
2023-04-21T20:13:32.418Z,12.63
2023-04-21T20:16:00.670Z,12.55
2023-04-21T20:18:30.432Z,12.49
2023-04-21T20:20:58.826Z,12.45
2023-04-21T20:23:27.096Z,12.51
2023-04-21T20:25:55.020Z,12.53
2023-04-21T20:28:22.897Z,12.38
2023-04-21T20:30:51.280Z,12.11
2023-04-21T20:33:19.181Z,12.17
2023-04-21T20:35:49.470Z,11.94
2023-04-21T20:38:17.463Z,11.94
2023-04-21T20:40:45.334Z,11.93
2023-04-21T20:43:15.223Z,11.91
2023-04-21T20:45:43.182Z,11.82
2023-04-21T20:48:11.178Z,11.88
2023-04-21T20:50:39.138Z,11.70
2023-04-21T20:53:08.858Z,11.87
2023-04-21T20:55:36.828Z,11.80
2023-04-21T20:58:05.090Z,11.73
2023-04-21T21:00:34.707Z,11.72
2023-04-21T21:03:04.229Z,11.63
2023-04-21T21:05:34.101Z,11.39
2023-04-21T21:08:02.630Z,11.40
2023-04-21T21:10:31.943Z,11.40
2023-04-21T21:13:00.198Z,11.29
2023-04-21T21:15:28.238Z,11.35
2023-04-21T21:17:56.421Z,11.37
2023-04-21T21:20:24.347Z,11.29
2023-04-21T21:22:52.290Z,11.25
2023-04-21T21:25:20.341Z,11.24
2023-04-21T21:27:49.913Z,11.03
2023-04-21T21:30:17.977Z,10.99
2023-04-21T21:32:45.859Z,11.01
2023-04-21T21:35:13.738Z,10.81
2023-04-21T21:37:41.919Z,10.84
2023-04-21T21:40:11.107Z,10.62
2023-04-21T21:42:39.794Z,10.70
2023-04-21T21:45:11.176Z,10.75
2023-04-21T21:47:43.038Z,10.64
2023-04-21T21:50:12.912Z,10.74
2023-04-21T21:52:40.792Z,10.63
2023-04-21T21:55:09.641Z,10.58
2023-04-21T21:57:37.620Z,10.65
2023-04-21T22:00:08.190Z,10.65
2023-04-21T22:02:37.829Z,10.73
2023-04-21T22:05:06.266Z,10.62
2023-04-21T22:07:35.438Z,10.67
2023-04-21T22:10:03.754Z,10.69
2023-04-21T22:12:32.648Z,10.72
2023-04-21T22:15:00.555Z,10.71
2023-04-21T22:17:29.785Z,10.65
2023-04-21T22:19:59.145Z,10.66
2023-04-21T22:22:27.325Z,10.62
2023-04-21T22:24:55.277Z,10.70
2023-04-21T22:27:23.341Z,10.65
2023-04-21T22:29:51.465Z,10.56
2023-04-21T22:32:19.725Z,10.50
2023-04-21T22:34:47.677Z,10.59
2023-04-21T22:37:17.618Z,10.43
2023-04-21T22:39:45.937Z,10.45
2023-04-21T22:42:13.989Z,10.41
2023-04-21T22:44:42.009Z,10.39
2023-04-21T22:47:10.825Z,10.43
2023-04-21T22:49:39.363Z,10.39
2023-04-21T22:52:07.787Z,10.38
2023-04-21T22:54:37.093Z,10.40
2023-04-21T22:57:04.994Z,10.33
2023-04-21T22:59:32.995Z,10.36
2023-04-21T23:02:00.967Z,10.33
2023-04-21T23:04:28.929Z,10.30
2023-04-21T23:06:56.801Z,10.30
2023-04-21T23:09:25.092Z,10.29
2023-04-21T23:11:54.404Z,10.30
2023-04-21T23:14:22.326Z,10.33
2023-04-21T23:16:50.256Z,10.30
2023-04-21T23:19:18.220Z,10.32
2023-04-21T23:21:46.525Z,10.25
2023-04-21T23:24:14.524Z,10.18
2023-04-21T23:26:42.731Z,10.19
2023-04-21T23:29:12.028Z,10.09
2023-04-21T23:31:40.108Z,10.21
2023-04-21T23:34:08.064Z,10.23
2023-04-21T23:36:35.984Z,10.26
2023-04-21T23:39:03.976Z,10.18
2023-04-21T23:41:32.219Z,10.13
2023-04-21T23:44:00.182Z,10.10
2023-04-21T23:46:29.567Z,10.16
2023-04-21T23:48:57.567Z,10.07
2023-04-21T23:51:25.902Z,10.05
2023-04-21T23:53:53.861Z,9.95
2023-04-21T23:56:21.928Z,10.04
2023-04-21T23:58:49.875Z,10.00
